Time;durP1;ratioP1;P1;durP2;ratioP2;P2;SDS_P1;SDS_P2;PMS_P1;PMS_P2;Temp;Humidity;BMP_temperature;BMP_pressure;BME280_temperature;BME280_humidity;BME280_pressure;Samples;Min_cycle;Max_cycle;Signal;HPM_P1;HPM_P2
2023/01/03 00:01:35;;;;;;;6.65;4.97;;;10.30;79.90;;;;;;5073162;28;20124;-88
2023/01/03 00:04:02;;;;;;;6.20;5.10;;;10.30;79.90;;;;;;5055703;28;20025;-89
2023/01/03 00:06:30;;;;;;;6.35;5.18;;;10.30;79.90;;;;;;5072394;28;20033;-89
2023/01/03 00:08:58;;;;;;;7.18;5.50;;;10.30;80.00;;;;;;5055805;28;20048;-89
2023/01/03 00:14:29;;;;;;;7.45;5.88;;;10.30;80.00;;;;;;5054845;28;20036;-89
2023/01/03 00:16:57;;;;;;;6.43;5.00;;;10.30;80.00;;;;;;5055796;28;20359;-89
2023/01/03 00:19:26;;;;;;;7.20;5.10;;;10.30;80.00;;;;;;5055816;28;20480;-89
2023/01/03 00:21:52;;;;;;;7.80;5.28;;;10.30;80.00;;;;;;5055494;28;20025;-89
2023/01/03 00:24:18;;;;;;;6.63;5.03;;;10.30;80.00;;;;;;5072575;28;20117;-89
2023/01/03 00:26:47;;;;;;;7.82;5.85;;;10.30;80.00;;;;;;5057868;28;20025;-91
2023/01/03 00:29:14;;;;;;;7.70;5.95;;;10.20;80.00;;;;;;5094075;28;20025;-88
2023/01/03 00:31:41;;;;;;;7.13;5.70;;;10.20;80.00;;;;;;5070667;28;20036;-89
2023/01/03 00:34:07;;;;;;;7.97;5.50;;;10.20;79.90;;;;;;5058002;28;20048;-89
2023/01/03 00:36:35;;;;;;;7.00;5.63;;;10.20;80.00;;;;;;5055492;28;20083;-89
2023/01/03 00:39:01;;;;;;;6.65;5.28;;;10.20;80.00;;;;;;5055222;28;20029;-89
2023/01/03 00:41:28;;;;;;;7.30;5.20;;;10.20;80.00;;;;;;5054976;28;20447;-89
2023/01/03 00:43:54;;;;;;;7.40;5.80;;;10.20;80.00;;;;;;5054974;28;20025;-89
2023/01/03 00:46:22;;;;;;;7.35;5.72;;;10.20;80.00;;;;;;5054714;28;20029;-90
2023/01/03 00:48:48;;;;;;;7.32;5.85;;;10.10;80.00;;;;;;5071432;28;20096;-89
2023/01/03 00:51:29;;;;;;;7.65;5.75;;;10.20;80.00;;;;;;5055057;28;20024;-89
2023/01/03 00:53:57;;;;;;;6.85;5.18;;;10.10;80.00;;;;;;5054874;28;20033;-89
2023/01/03 00:56:26;;;;;;;7.45;5.95;;;10.10;80.00;;;;;;5054481;28;20057;-89
2023/01/03 00:58:52;;;;;;;8.30;6.07;;;10.10;80.00;;;;;;5071362;28;20029;-90
2023/01/03 01:01:21;;;;;;;6.80;5.30;;;10.10;80.00;;;;;;5054249;28;20025;-90
2023/01/03 01:03:51;;;;;;;7.63;6.05;;;10.10;80.00;;;;;;5054709;28;20029;-89
2023/01/03 01:06:21;;;;;;;7.03;5.65;;;10.10;80.00;;;;;;5054367;28;20025;-91
2023/01/03 01:08:48;;;;;;;8.43;5.97;;;10.10;80.00;;;;;;5071094;28;20024;-89
2023/01/03 01:11:15;;;;;;;6.65;5.57;;;10.00;80.00;;;;;;5054356;28;20087;-89
2023/01/03 01:13:42;;;;;;;7.90;6.45;;;10.00;80.00;;;;;;5054193;28;20039;-89
2023/01/03 01:16:11;;;;;;;7.30;5.68;;;10.00;80.00;;;;;;5054096;28;20493;-89
2023/01/03 01:18:38;;;;;;;7.40;5.75;;;10.00;80.00;;;;;;5054027;28;20029;-91
2023/01/03 01:21:06;;;;;;;6.90;5.45;;;10.00;80.00;;;;;;5054203;28;20060;-89
2023/01/03 01:23:34;;;;;;;7.15;5.85;;;10.00;80.00;;;;;;5054344;28;20075;-89
2023/01/03 01:26:01;;;;;;;6.80;5.75;;;10.00;80.00;;;;;;5054050;28;20032;-89
2023/01/03 01:28:27;;;;;;;8.32;6.55;;;9.90;80.00;;;;;;5037294;28;20025;-89
2023/01/03 01:30:56;;;;;;;7.60;5.95;;;9.90;80.00;;;;;;5021620;28;20036;-89
2023/01/03 01:33:22;;;;;;;9.25;6.53;;;9.90;80.00;;;;;;5054250;28;20024;-90
2023/01/03 01:35:50;;;;;;;7.35;5.78;;;9.90;80.00;;;;;;5054648;28;20134;-89
2023/01/03 01:38:16;;;;;;;7.50;6.10;;;9.90;80.00;;;;;;5054243;28;20134;-89
2023/01/03 01:40:42;;;;;;;6.97;5.88;;;9.90;80.00;;;;;;5070714;28;20481;-89
2023/01/03 01:46:24;;;;;;;;;;;9.90;80.10;;;;;;5054304;28;20037;-89
2023/01/03 01:48:55;;;;;;;7.22;5.43;;;9.80;79.80;;;;;;5053810;28;20003;-89
2023/01/03 01:51:23;;;;;;;7.15;5.65;;;9.90;79.80;;;;;;5053904;28;20512;-89
2023/01/03 01:53:52;;;;;;;7.95;6.40;;;9.90;80.00;;;;;;5053624;28;20354;-89
2023/01/03 01:56:22;;;;;;;8.10;6.47;;;9.80;80.00;;;;;;5036497;28;20068;-89
2023/01/03 01:58:51;;;;;;;7.82;6.15;;;9.80;80.00;;;;;;5053810;28;20079;-90
2023/01/03 02:01:20;;;;;;;7.93;6.50;;;9.80;80.00;;;;;;5053709;28;20089;-89
2023/01/03 02:03:55;;;;;;;7.78;6.55;;;9.80;80.00;;;;;;5053354;28;20029;-90
2023/01/03 02:06:23;;;;;;;8.07;6.28;;;9.80;80.10;;;;;;5053353;28;20056;-91
2023/01/03 02:08:49;;;;;;;8.35;6.97;;;9.80;80.00;;;;;;5037094;28;20079;-90
2023/01/03 02:11:23;;;;;;;7.35;6.00;;;9.80;80.00;;;;;;5053268;28;20028;-90
2023/01/03 02:14:25;;;;;;;7.53;6.25;;;9.80;80.10;;;;;;5052502;28;20032;-89
2023/01/03 02:16:51;;;;;;;8.02;6.45;;;9.70;80.00;;;;;;5053884;28;20037;-89
2023/01/03 02:19:35;;;;;;;7.65;6.25;;;9.70;80.00;;;;;;5052830;28;20021;-90
2023/01/03 02:22:25;;;;;;;8.63;6.68;;;9.70;80.00;;;;;;5070347;28;20032;-89
2023/01/03 02:25:19;;;;;;;7.75;6.50;;;9.70;80.00;;;;;;5053366;28;20120;-90
2023/01/03 02:28:03;;;;;;;7.35;6.03;;;9.70;80.00;;;;;;5053875;28;20036;-91
2023/01/03 02:30:29;;;;;;;7.78;6.70;;;9.60;79.90;;;;;;5053742;28;20047;-90
2023/01/03 02:33:04;;;;;;;7.63;6.20;;;9.60;79.90;;;;;;5053024;28;20449;-89
2023/01/03 02:35:41;;;;;;;8.30;6.72;;;9.60;80.00;;;;;;5052868;28;20033;-90
2023/01/03 02:38:12;;;;;;;7.30;6.10;;;9.60;80.00;;;;;;5053248;28;20131;-89
2023/01/03 02:40:49;;;;;;;8.00;6.07;;;9.60;80.00;;;;;;5053219;28;20112;-89
2023/01/03 02:43:29;;;;;;;8.88;6.78;;;9.60;80.00;;;;;;5053050;28;20033;-90
2023/01/03 02:46:05;;;;;;;8.48;6.53;;;9.50;80.00;;;;;;5086725;28;20033;-89
2023/01/03 02:48:47;;;;;;;8.80;7.10;;;9.50;80.00;;;;;;5053316;28;20021;-89
2023/01/03 02:51:40;;;;;;;7.78;6.25;;;9.50;80.00;;;;;;5053259;28;20061;-89
2023/01/03 02:54:12;;;;;;;7.70;6.40;;;9.50;80.00;;;;;;5053248;28;20082;-89
2023/01/03 02:56:47;;;;;;;9.82;6.68;;;9.50;80.00;;;;;;5055327;28;20044;-89
2023/01/03 02:59:18;;;;;;;8.65;6.90;;;9.50;80.00;;;;;;5055110;28;20037;-90
2023/01/03 03:01:49;;;;;;;8.27;6.50;;;9.50;80.00;;;;;;5055205;28;20059;-89
2023/01/03 03:04:16;;;;;;;8.55;6.40;;;9.40;79.90;;;;;;5087589;28;20029;-89
2023/01/03 03:06:49;;;;;;;7.68;6.63;;;9.40;80.00;;;;;;5069913;28;20043;-89
2023/01/03 03:09:15;;;;;;;8.80;6.85;;;9.40;80.00;;;;;;5086336;28;20366;-90
2023/01/03 03:14:42;;;;;;;8.02;6.80;;;9.40;80.00;;;;;;5053633;28;20083;-89
2023/01/03 03:17:14;;;;;;;7.68;6.78;;;9.40;80.00;;;;;;5052808;28;20092;-90
2023/01/03 03:25:35;;;;;;;7.82;6.80;;;9.30;79.90;;;;;;5055899;28;20036;-89
2023/01/03 03:30:54;;;;;;;8.65;6.53;;;9.30;80.00;;;;;;5057479;28;20060;-88
2023/01/03 03:33:24;;;;;;;8.52;7.28;;;9.30;80.00;;;;;;5056440;28;20025;-89
2023/01/03 03:35:58;;;;;;;8.50;7.07;;;9.30;80.00;;;;;;5056423;28;20043;-90
2023/01/03 03:38:35;;;;;;;8.93;7.07;;;9.30;80.00;;;;;;5056460;28;20047;-89
2023/01/03 03:47:41;;;;;;;8.95;7.70;;;9.30;80.00;;;;;;5055357;28;20036;-89
2023/01/03 03:50:14;;;;;;;9.27;8.15;;;9.30;80.00;;;;;;5070854;28;20048;-90
2023/01/03 03:52:45;;;;;;;8.93;7.55;;;9.20;79.90;;;;;;5056330;28;20532;-90
2023/01/03 03:55:25;;;;;;;8.23;6.78;;;9.20;80.00;;;;;;5057002;28;20029;-89
2023/01/03 03:57:58;;;;;;;9.05;7.45;;;9.20;80.00;;;;;;5056099;28;20080;-89
2023/01/03 04:00:31;;;;;;;9.40;7.97;;;9.20;80.00;;;;;;5055720;28;20032;-89
2023/01/03 04:03:00;;;;;;;9.23;7.53;;;9.20;80.00;;;;;;5072638;28;20037;-91
2023/01/03 04:05:32;;;;;;;10.88;8.35;;;9.20;80.00;;;;;;5055508;28;20114;-89
2023/01/03 04:07:58;;;;;;;9.50;7.35;;;9.20;79.90;;;;;;5055815;28;20120;-90
2023/01/03 04:10:24;;;;;;;10.20;8.30;;;9.10;79.90;;;;;;5055114;28;20119;-89
2023/01/03 04:12:52;;;;;;;9.10;7.85;;;9.10;80.00;;;;;;5056340;28;20025;-89
2023/01/03 04:15:18;;;;;;;9.40;8.23;;;9.10;80.00;;;;;;5073842;28;20017;-90
2023/01/03 04:17:44;;;;;;;8.95;8.00;;;9.10;79.90;;;;;;5047902;28;20389;-88
2023/01/03 04:20:13;;;;;;;10.13;8.02;;;9.10;80.00;;;;;;5038822;28;20049;-89
2023/01/03 04:22:40;;;;;;;9.25;7.47;;;9.10;80.00;;;;;;5055141;28;20025;-90
2023/01/03 04:25:06;;;;;;;9.63;7.65;;;9.00;79.90;;;;;;5071855;28;20056;-89
2023/01/03 04:27:33;;;;;;;9.77;8.13;;;9.00;79.90;;;;;;5039253;28;20033;-90
2023/01/03 04:29:58;;;;;;;9.93;7.97;;;9.00;79.90;;;;;;5054893;28;20024;-89
2023/01/03 04:32:24;;;;;;;9.90;8.05;;;9.00;79.90;;;;;;5055289;28;20021;-89
2023/01/03 04:34:50;;;;;;;9.07;7.55;;;9.00;79.90;;;;;;5054657;28;20103;-89
2023/01/03 04:37:16;;;;;;;9.73;8.30;;;9.00;79.90;;;;;;5070613;28;20036;-90
2023/01/03 04:39:43;;;;;;;9.98;7.88;;;8.90;79.90;;;;;;5054467;28;20021;-89
2023/01/03 04:44:53;;;;;;;8.82;7.47;;;8.90;79.90;;;;;;5055526;28;20037;-89
2023/01/03 04:47:21;;;;;;;8.32;7.13;;;8.90;79.80;;;;;;5022066;28;20032;-89
2023/01/03 04:49:47;;;;;;;8.60;7.00;;;8.90;79.90;;;;;;5055342;28;20028;-89
2023/01/03 04:52:14;;;;;;;8.55;7.07;;;8.90;79.90;;;;;;5054738;28;20024;-89
2023/01/03 04:54:40;;;;;;;7.78;6.80;;;8.80;79.80;;;;;;5054510;28;20033;-89
2023/01/03 04:57:07;;;;;;;8.32;6.75;;;8.80;79.90;;;;;;5054130;28;20132;-89
2023/01/03 04:59:33;;;;;;;9.25;7.25;;;8.80;79.80;;;;;;5054317;28;20033;-89
2023/01/03 05:02:00;;;;;;;8.98;7.15;;;8.80;79.80;;;;;;5037958;28;20546;-89
2023/01/03 05:04:25;;;;;;;8.38;6.22;;;8.80;79.90;;;;;;5037751;28;20492;-89
2023/01/03 05:06:52;;;;;;;8.27;6.63;;;8.70;79.80;;;;;;5055450;28;20025;-89
2023/01/03 05:09:17;;;;;;;8.07;6.90;;;8.70;79.80;;;;;;5071006;28;20025;-89
2023/01/03 05:11:43;;;;;;;8.05;6.68;;;8.70;79.80;;;;;;5087838;28;20028;-89
2023/01/03 05:14:09;;;;;;;7.60;6.75;;;8.70;79.80;;;;;;5054206;28;20143;-89
2023/01/03 05:16:35;;;;;;;7.30;6.20;;;8.70;79.80;;;;;;5071378;28;20481;-89
2023/01/03 05:19:01;;;;;;;8.98;7.00;;;8.70;79.80;;;;;;5054047;28;20032;-89
2023/01/03 05:26:58;;;;;;;7.63;6.55;;;8.60;79.80;;;;;;5057125;28;20063;-89
2023/01/03 05:29:26;;;;;;;6.97;5.80;;;8.60;79.80;;;;;;5040200;28;20032;-89
2023/01/03 05:31:52;;;;;;;6.72;5.82;;;8.50;79.70;;;;;;5055496;28;20025;-89
2023/01/03 05:34:18;;;;;;;7.68;6.50;;;8.50;79.80;;;;;;5054136;28;20036;-89
2023/01/03 05:36:44;;;;;;;7.95;6.28;;;8.50;79.70;;;;;;5070395;28;20462;-89
2023/01/03 05:39:10;;;;;;;8.85;7.05;;;8.50;79.70;;;;;;5054204;28;20036;-89
2023/01/03 05:44:20;;;;;;;7.40;6.30;;;8.50;79.80;;;;;;5054531;28;20028;-89
2023/01/03 05:46:46;;;;;;;7.60;6.75;;;8.50;79.80;;;;;;5053485;28;20111;-88
2023/01/03 05:49:12;;;;;;;7.55;5.97;;;8.40;79.70;;;;;;5069230;28;20035;-89
2023/01/03 05:51:38;;;;;;;7.65;6.25;;;8.40;79.70;;;;;;5053445;28;20390;-88
2023/01/03 05:54:04;;;;;;;7.18;5.57;;;8.40;79.70;;;;;;5053785;28;20029;-90
2023/01/03 05:56:35;;;;;;;7.57;5.63;;;8.40;79.70;;;;;;5053753;28;20086;-89
2023/01/03 05:59:01;;;;;;;6.95;5.57;;;8.40;79.70;;;;;;5054570;28;20036;-88
2023/01/03 06:01:30;;;;;;;7.60;6.07;;;8.40;79.70;;;;;;5053976;28;20029;-89
2023/01/03 06:03:56;;;;;;;7.07;6.18;;;8.30;79.70;;;;;;5053807;28;20029;-88
2023/01/03 06:06:21;;;;;;;7.00;5.55;;;8.30;79.70;;;;;;5037119;28;20033;-89
2023/01/03 06:08:48;;;;;;;7.45;6.15;;;8.30;79.70;;;;;;5036902;28;20103;-89
2023/01/03 06:11:18;;;;;;;6.90;5.70;;;8.30;79.70;;;;;;5053396;28;20014;-89
2023/01/03 06:13:44;;;;;;;6.80;5.60;;;8.30;79.70;;;;;;5053353;28;20115;-89
2023/01/03 06:19:02;;;;;;;7.38;5.95;;;8.30;79.70;;;;;;5054787;28;20035;-89
2023/01/03 06:21:28;;;;;;;7.47;6.20;;;8.20;79.60;;;;;;5053291;28;20507;-90
2023/01/03 06:23:53;;;;;;;7.10;5.78;;;8.20;79.70;;;;;;5070113;28;20072;-88
2023/01/03 06:26:22;;;;;;;7.30;6.18;;;8.20;79.70;;;;;;5052846;28;20024;-89
2023/01/03 06:28:49;;;;;;;7.95;6.55;;;8.10;79.60;;;;;;5053157;28;20025;-88
2023/01/03 06:31:15;;;;;;;6.03;5.32;;;8.10;79.60;;;;;;5054418;28;20021;-89
2023/01/03 06:33:41;;;;;;;6.63;5.43;;;8.10;79.70;;;;;;5053412;28;20034;-89
2023/01/03 06:36:11;;;;;;;6.45;5.35;;;8.10;79.70;;;;;;5053196;28;20037;-89
2023/01/03 06:38:40;;;;;;;6.80;5.70;;;8.10;79.70;;;;;;5053341;28;20033;-88
2023/01/03 06:41:06;;;;;;;6.90;5.20;;;8.10;79.70;;;;;;5070173;28;20028;-89
2023/01/03 06:43:32;;;;;;;6.50;5.30;;;8.10;79.60;;;;;;5053407;28;20022;-89
2023/01/03 06:54:30;;;;;;;6.90;5.22;;;7.90;79.40;;;;;;5053133;28;20025;-88
2023/01/03 06:56:56;;;;;;;6.13;4.97;;;8.00;79.60;;;;;;5052705;28;20052;-89
2023/01/03 06:59:22;;;;;;;6.20;5.28;;;7.90;79.60;;;;;;5053659;28;20036;-85
2023/01/03 07:01:50;;;;;;;7.00;5.55;;;7.90;79.60;;;;;;5056852;28;20061;-87
2023/01/03 07:04:17;;;;;;;6.03;4.88;;;7.90;79.70;;;;;;5065315;28;20039;-85
2023/01/03 07:06:43;;;;;;;6.10;4.85;;;7.90;79.70;;;;;;5067361;28;20090;-88
2023/01/03 07:09:09;;;;;;;6.97;5.32;;;7.90;79.70;;;;;;5058130;28;20021;-88
2023/01/03 07:11:36;;;;;;;7.30;5.45;;;7.90;79.70;;;;;;5074389;28;20408;-88
2023/01/03 07:14:03;;;;;;;6.65;4.85;;;7.90;79.60;;;;;;5057984;28;20130;-89
2023/01/03 07:16:34;;;;;;;6.78;5.10;;;7.90;79.60;;;;;;5041078;28;20090;-86
2023/01/03 07:19:01;;;;;;;6.50;5.18;;;7.90;79.60;;;;;;5059239;28;20029;-91
2023/01/03 07:21:31;;;;;;;6.78;5.18;;;7.90;79.70;;;;;;5057230;28;20032;-90
2023/01/03 07:24:00;;;;;;;7.03;5.10;;;7.90;79.70;;;;;;5056781;28;20112;-88
2023/01/03 07:26:27;;;;;;;6.30;4.97;;;7.80;79.60;;;;;;5056230;28;20035;-90
2023/01/03 07:28:53;;;;;;;6.28;5.10;;;7.80;79.60;;;;;;5055851;28;20128;-86
2023/01/03 07:31:18;;;;;;;6.65;5.15;;;7.80;79.60;;;;;;5056477;28;20060;-86
2023/01/03 07:33:44;;;;;;;6.68;5.18;;;7.80;79.60;;;;;;5039829;28;20082;-86
2023/01/03 07:36:12;;;;;;;6.38;5.25;;;7.80;79.60;;;;;;5073607;28;20401;-87
2023/01/03 07:38:39;;;;;;;7.35;5.50;;;7.80;79.60;;;;;;5055735;28;20033;-85
2023/01/03 07:41:09;;;;;;;6.13;5.28;;;7.80;79.60;;;;;;5090281;28;20029;-84
2023/01/03 07:43:35;;;;;;;5.95;4.75;;;7.80;79.60;;;;;;5073711;28;20079;-86
2023/01/03 07:46:31;;;;;;;6.60;5.43;;;7.80;79.60;;;;;;5039599;28;20051;-87
2023/01/03 07:49:01;;;;;;;6.93;5.25;;;7.80;79.70;;;;;;5069442;28;20041;-85
2023/01/03 07:51:27;;;;;;;6.93;5.45;;;7.80;79.60;;;;;;5057318;28;20120;-89
2023/01/03 07:53:53;;;;;;;6.60;5.30;;;7.70;79.50;;;;;;5055832;28;20518;-87
2023/01/03 07:56:21;;;;;;;6.75;5.05;;;7.80;79.60;;;;;;5039796;28;20076;-86
2023/01/03 07:58:48;;;;;;;7.10;5.18;;;7.80;79.60;;;;;;5057292;28;20044;-86
2023/01/03 08:01:16;;;;;;;6.47;5.20;;;7.80;79.60;;;;;;5058234;28;20036;-85
2023/01/03 08:03:43;;;;;;;7.15;5.45;;;7.80;79.60;;;;;;5056209;28;20016;-87
2023/01/03 08:06:14;;;;;;;6.35;5.32;;;7.70;79.60;;;;;;5091124;28;20040;-88
2023/01/03 08:08:40;;;;;;;6.60;5.47;;;7.70;79.60;;;;;;5055545;28;20029;-87
2023/01/03 08:13:53;;;;;;;6.95;5.22;;;7.70;79.60;;;;;;5056452;28;20033;-88
2023/01/03 08:16:19;;;;;;;6.20;5.28;;;7.70;79.50;;;;;;5056231;28;20032;-88
2023/01/03 08:18:45;;;;;;;7.32;5.80;;;7.70;79.60;;;;;;5073166;28;20131;-89
2023/01/03 08:21:13;;;;;;;6.80;5.47;;;7.70;79.60;;;;;;5056390;28;20484;-90
2023/01/03 08:23:41;;;;;;;6.30;5.68;;;7.70;79.70;;;;;;5072733;28;20535;-90
2023/01/03 08:26:16;;;;;;;6.80;5.40;;;7.70;79.60;;;;;;5055572;28;20029;-88
2023/01/03 08:28:43;;;;;;;6.95;5.55;;;7.70;79.70;;;;;;5071878;28;20485;-86
2023/01/03 08:31:16;;;;;;;6.75;5.47;;;7.70;79.60;;;;;;5055030;28;20049;-90
2023/01/03 08:33:48;;;;;;;6.50;5.25;;;7.70;79.70;;;;;;5054810;28;20024;-86
2023/01/03 08:36:14;;;;;;;7.78;5.80;;;7.80;79.70;;;;;;5057359;28;20036;-88
2023/01/03 08:38:52;;;;;;;8.23;5.68;;;7.80;79.60;;;;;;5076802;28;20029;-88
2023/01/03 08:41:21;;;;;;;7.57;5.50;;;7.80;79.70;;;;;;5054526;28;20021;-89
2023/01/03 08:43:48;;;;;;;6.15;4.93;;;7.80;79.70;;;;;;5054543;28;20040;-89
2023/01/03 08:46:16;;;;;;;7.32;5.30;;;7.80;79.60;;;;;;5054701;28;20037;-88
2023/01/03 08:48:42;;;;;;;7.18;5.75;;;7.80;79.70;;;;;;5054526;28;20032;-89
2023/01/03 08:51:08;;;;;;;6.50;5.30;;;7.80;79.60;;;;;;5088401;28;20040;-89
2023/01/03 08:53:34;;;;;;;7.22;6.03;;;7.80;79.70;;;;;;5070700;28;20021;-86
2023/01/03 08:56:00;;;;;;;6.10;4.80;;;7.80;79.70;;;;;;5021161;28;20037;-86
2023/01/03 08:58:26;;;;;;;7.10;5.75;;;7.80;79.70;;;;;;5053799;28;20501;-87
2023/01/03 09:00:51;;;;;;;7.00;5.20;;;7.80;79.70;;;;;;5054247;28;20036;-86
2023/01/03 09:03:18;;;;;;;7.88;5.50;;;7.90;79.80;;;;;;5054786;28;20124;-86
2023/01/03 09:05:44;;;;;;;6.78;5.45;;;7.90;79.80;;;;;;5070709;28;20029;-86
2023/01/03 09:08:10;;;;;;;7.28;4.85;;;7.90;79.80;;;;;;5088225;28;20416;-86
2023/01/03 09:10:36;;;;;;;6.75;5.28;;;7.90;79.80;;;;;;5070370;28;20061;-88
2023/01/03 09:13:03;;;;;;;7.90;5.20;;;7.90;79.80;;;;;;5054942;28;20124;-86
2023/01/03 09:15:29;;;;;;;5.82;4.80;;;7.90;79.80;;;;;;5054243;28;20024;-87
2023/01/03 09:17:55;;;;;;;6.53;4.95;;;7.90;79.80;;;;;;5037285;28;20033;-86
2023/01/03 09:20:21;;;;;;;7.57;4.88;;;7.90;79.70;;;;;;5037482;28;20397;-87
2023/01/03 09:22:47;;;;;;;7.00;5.25;;;8.00;79.80;;;;;;5070340;28;20021;-90
2023/01/03 09:25:14;;;;;;;6.32;4.63;;;8.00;79.80;;;;;;5038062;28;20057;-89
2023/01/03 09:27:44;;;;;;;5.68;4.25;;;8.00;79.80;;;;;;5053601;28;20032;-88
2023/01/03 09:30:12;;;;;;;6.25;4.38;;;8.00;79.80;;;;;;5053909;28;20039;-89
2023/01/03 09:32:38;;;;;;;6.07;4.55;;;8.00;79.80;;;;;;5054680;28;20464;-86
2023/01/03 09:35:04;;;;;;;6.50;4.95;;;8.00;79.80;;;;;;5037820;28;20033;-89
2023/01/03 09:37:30;;;;;;;5.47;4.63;;;8.00;80.40;;;;;;5059749;28;20029;-89
2023/01/03 09:39:56;;;;;;;6.65;4.75;;;8.00;79.80;;;;;;5084674;28;20452;-89
2023/01/03 09:45:20;;;;;;;5.80;4.68;;;8.10;79.90;;;;;;5054798;28;20037;-91
2023/01/03 09:47:46;;;;;;;6.13;4.63;;;8.10;79.90;;;;;;5054656;28;20116;-91
2023/01/03 09:50:25;;;;;;;6.47;4.75;;;8.10;79.80;;;;;;5038695;28;20064;-90
2023/01/03 10:04:30;;;;;;;5.88;4.30;;;8.20;79.90;;;;;;5053913;28;20033;-89
2023/01/03 10:07:17;;;;;;;6.22;4.57;;;8.20;79.80;;;;;;5053477;28;20122;-88
2023/01/03 10:10:00;;;;;;;6.03;4.07;;;8.20;80.00;;;;;;5054831;28;20082;-87
2023/01/03 10:12:29;;;;;;;5.22;4.50;;;8.20;79.90;;;;;;5054807;28;20430;-89
2023/01/03 10:15:14;;;;;;;5.57;4.43;;;8.30;79.90;;;;;;5053284;28;20032;-86
2023/01/03 10:17:56;;;;;;;;;;;8.30;80.00;;;;;;5053958;28;20116;-87
2023/01/03 10:20:39;;;;;;;5.35;3.97;;;8.30;79.70;;;;;;5054976;28;20384;-90
2023/01/03 10:23:07;;;;;;;5.40;4.35;;;8.30;79.70;;;;;;5071883;28;20090;-86
2023/01/03 10:25:40;;;;;;;6.70;4.35;;;8.30;79.80;;;;;;5054196;28;20048;-88
2023/01/03 10:28:15;;;;;;;5.65;4.40;;;8.30;79.80;;;;;;5072545;28;20024;-86
2023/01/03 10:31:14;;;;;;;5.78;4.47;;;8.40;80.00;;;;;;5054948;28;20029;-86
2023/01/03 10:33:49;;;;;;;5.30;3.88;;;8.40;80.00;;;;;;5053808;28;20112;-85
2023/01/03 10:36:17;;;;;;;6.05;4.50;;;8.40;79.90;;;;;;5051885;28;20132;-87
2023/01/03 10:38:43;;;;;;;6.38;4.68;;;8.40;79.90;;;;;;5042256;28;20033;-88
2023/01/03 10:41:32;;;;;;;6.63;4.45;;;8.40;79.90;;;;;;5057962;28;20028;-87
2023/01/03 10:44:03;;;;;;;6.22;4.47;;;8.50;80.10;;;;;;5057568;28;20123;-86
2023/01/03 10:46:30;;;;;;;5.10;4.32;;;8.50;80.00;;;;;;5061046;28;20033;-88
2023/01/03 10:49:13;;;;;;;5.30;4.20;;;8.50;80.00;;;;;;5057914;28;20053;-87
2023/01/03 10:52:01;;;;;;;5.80;4.40;;;8.60;80.10;;;;;;5074062;28;20025;-87
2023/01/03 10:54:42;;;;;;;4.72;3.95;;;8.60;80.10;;;;;;5036522;28;20033;-87
2023/01/03 10:57:40;;;;;;;6.90;4.20;;;8.60;80.00;;;;;;5057105;28;20045;-87
2023/01/03 11:00:27;;;;;;;5.25;3.88;;;8.60;80.00;;;;;;5056633;28;20091;-88
2023/01/03 11:02:59;;;;;;;5.15;3.92;;;8.60;80.00;;;;;;5056930;28;20083;-89
2023/01/03 11:05:26;;;;;;;5.35;4.00;;;8.70;80.00;;;;;;5074363;28;20033;-88
2023/01/03 11:08:01;;;;;;;4.90;3.78;;;8.70;80.00;;;;;;5040126;28;20358;-87
2023/01/03 11:10:38;;;;;;;5.78;4.22;;;8.70;80.10;;;;;;5056960;28;20021;-90
2023/01/03 11:13:37;;;;;;;5.60;4.43;;;8.70;80.10;;;;;;5056758;28;20372;-88
2023/01/03 11:16:13;;;;;;;5.47;3.63;;;8.80;80.20;;;;;;5039237;28;20049;-86
2023/01/03 11:18:41;;;;;;;4.88;3.75;;;8.80;80.10;;;;;;5055649;28;20485;-86
2023/01/03 11:21:16;;;;;;;5.90;3.90;;;8.80;80.10;;;;;;5072832;28;20024;-85
2023/01/03 11:23:53;;;;;;;6.63;3.90;;;8.80;80.20;;;;;;5056924;28;20098;-86
2023/01/03 11:26:28;;;;;;;5.43;3.65;;;8.80;80.10;;;;;;5056502;28;20036;-87
2023/01/03 11:29:33;;;;;;;6.07;4.22;;;8.90;80.10;;;;;;5057138;28;20029;-86
2023/01/03 11:32:38;;;;;;;5.20;3.83;;;8.90;80.10;;;;;;5058850;28;20044;-86
2023/01/03 11:35:19;;;;;;;4.85;3.60;;;8.90;80.00;;;;;;5081462;28;20143;-91
2023/01/03 11:38:10;;;;;;;5.30;3.78;;;9.00;80.10;;;;;;5056953;28;20055;-82
2023/01/03 11:41:03;;;;;;;4.90;3.95;;;9.00;80.10;;;;;;5055657;28;20025;-82
2023/01/03 11:43:40;;;;;;;4.25;3.55;;;9.00;80.20;;;;;;5056896;28;20095;-87
2023/01/03 11:46:30;;;;;;;5.40;3.92;;;9.00;80.10;;;;;;5055684;28;20569;-85
2023/01/03 11:49:19;;;;;;;5.07;3.55;;;9.00;80.10;;;;;;5089686;28;20033;-84
2023/01/03 11:52:06;;;;;;;5.03;3.65;;;9.10;80.20;;;;;;5060338;28;20021;-83
2023/01/03 11:54:40;;;;;;;4.70;3.55;;;9.10;80.20;;;;;;5058412;28;20543;-86
2023/01/03 11:57:20;;;;;;;4.50;3.22;;;9.10;80.10;;;;;;5058884;28;20147;-83
2023/01/03 12:00:04;;;;;;;4.50;3.30;;;9.10;80.10;;;;;;5058859;28;20553;-85
2023/01/03 12:02:49;;;;;;;4.63;3.40;;;9.10;80.20;;;;;;5059340;28;20512;-85
2023/01/03 12:05:45;;;;;;;4.72;3.63;;;9.20;80.10;;;;;;5059072;28;20116;-85
2023/01/03 12:08:29;;;;;;;4.75;3.30;;;9.20;80.10;;;;;;5058657;28;20086;-87
2023/01/03 12:11:04;;;;;;;4.60;3.27;;;9.20;80.00;;;;;;5057077;28;20488;-85
2023/01/03 12:13:47;;;;;;;4.60;3.42;;;9.30;80.10;;;;;;5057164;28;20102;-86
2023/01/03 12:16:27;;;;;;;4.55;3.00;;;9.30;80.10;;;;;;5057211;28;20051;-86
2023/01/03 12:19:12;;;;;;;5.00;3.58;;;9.30;80.10;;;;;;5073736;28;20120;-85
2023/01/03 12:21:47;;;;;;;5.13;3.60;;;9.30;80.20;;;;;;5073375;28;20025;-86
2023/01/03 12:24:15;;;;;;;;;;;9.30;80.10;;;;;;5057773;28;20194;-86
2023/01/03 12:26:51;;;;;;;3.90;2.83;;;9.30;79.90;;;;;;5073779;28;19954;-87
2023/01/03 12:29:28;;;;;;;3.65;2.88;;;9.40;79.90;;;;;;5057416;28;20040;-85
2023/01/03 12:32:13;;;;;;;4.47;3.08;;;9.40;80.00;;;;;;5057048;28;20025;-87
2023/01/03 12:34:51;;;;;;;4.38;3.30;;;9.40;80.10;;;;;;5057031;28;20029;-87
2023/01/03 12:37:24;;;;;;;4.82;3.25;;;9.40;80.00;;;;;;5057454;28;20064;-87
2023/01/03 12:40:20;;;;;;;4.63;3.40;;;9.40;80.00;;;;;;5073889;28;20116;-86
2023/01/03 12:43:14;;;;;;;4.60;3.25;;;9.40;80.00;;;;;;5041893;28;20040;-86
2023/01/03 12:46:04;;;;;;;3.38;2.65;;;9.40;80.00;;;;;;5057477;28;20037;-86
2023/01/03 12:48:53;;;;;;;4.15;3.17;;;9.50;80.00;;;;;;5056771;28;20120;-86
2023/01/03 12:51:28;;;;;;;3.63;2.80;;;9.50;80.00;;;;;;5057361;28;20450;-85
2023/01/03 12:54:15;;;;;;;4.00;3.10;;;9.50;79.90;;;;;;5057151;28;20461;-86
2023/01/03 12:57:02;;;;;;;3.92;2.97;;;9.60;80.10;;;;;;5056561;28;20044;-85
2023/01/03 13:00:03;;;;;;;3.85;2.70;;;9.60;80.00;;;;;;5057475;28;20147;-85
2023/01/03 13:02:45;;;;;;;4.18;2.90;;;9.60;80.00;;;;;;5057097;28;20112;-85
2023/01/03 13:05:48;;;;;;;4.13;3.05;;;9.60;80.00;;;;;;5056287;28;20033;-85
2023/01/03 13:08:43;;;;;;;3.95;2.88;;;9.60;80.60;;;;;;5049407;28;20032;-84
2023/01/03 13:11:37;;;;;;;3.83;2.80;;;9.70;80.10;;;;;;5055842;28;20021;-81
2023/01/03 13:14:20;;;;;;;3.78;2.80;;;9.60;79.90;;;;;;5039463;28;20033;-86
2023/01/03 13:17:13;;;;;;;3.90;2.60;;;9.70;79.90;;;;;;5073193;28;20086;-86
2023/01/03 13:19:56;;;;;;;5.05;3.30;;;9.70;80.00;;;;;;5055998;28;20036;-85
2023/01/03 13:22:33;;;;;;;4.72;2.90;;;9.70;80.00;;;;;;5055966;28;20083;-84
2023/01/03 13:25:30;;;;;;;4.10;2.83;;;9.80;80.00;;;;;;5055531;28;20071;-85
2023/01/03 13:28:28;;;;;;;4.22;2.92;;;9.80;80.00;;;;;;5055639;28;20117;-84
2023/01/03 13:31:19;;;;;;;3.60;2.75;;;9.80;79.80;;;;;;5025584;28;20029;-85
2023/01/03 13:33:51;;;;;;;4.28;3.30;;;9.80;79.90;;;;;;5056034;28;20442;-85
2023/01/03 13:36:24;;;;;;;3.92;2.65;;;9.80;79.80;;;;;;5056304;28;20120;-83
2023/01/03 13:38:52;;;;;;;4.03;2.90;;;9.90;79.80;;;;;;5021938;28;20041;-85
2023/01/03 13:41:40;;;;;;;4.40;3.33;;;9.90;79.80;;;;;;5054748;28;20021;-85
2023/01/03 13:44:22;;;;;;;4.00;2.95;;;9.90;79.90;;;;;;5038861;28;20031;-83
2023/01/03 13:46:49;;;;;;;4.75;3.03;;;9.90;80.40;;;;;;5055414;28;20040;-81
2023/01/03 13:49:24;;;;;;;3.90;3.20;;;9.90;79.70;;;;;;5039633;28;20037;-85
2023/01/03 13:51:56;;;;;;;4.07;3.13;;;10.00;79.80;;;;;;5055455;28;20103;-84
2023/01/03 13:54:21;;;;;;;4.28;3.20;;;10.00;79.80;;;;;;5056386;28;20017;-84
2023/01/03 13:56:53;;;;;;;4.43;3.00;;;10.00;79.80;;;;;;5055810;28;20052;-84
2023/01/03 13:59:33;;;;;;;4.10;3.00;;;10.00;79.80;;;;;;5057345;28;20101;-85
2023/01/03 14:02:08;;;;;;;4.10;3.00;;;10.10;80.40;;;;;;5055693;28;20074;-83
2023/01/03 14:05:24;;;;;;;3.63;2.65;;;10.10;79.70;;;;;;5037842;28;20025;-83
2023/01/03 14:08:02;;;;;;;3.10;2.47;;;10.10;79.70;;;;;;5037817;28;20029;-85
2023/01/03 14:10:37;;;;;;;3.70;2.83;;;10.10;79.50;;;;;;5054262;28;20037;-85
2023/01/03 14:13:09;;;;;;;4.07;3.00;;;10.10;79.50;;;;;;5055454;28;20029;-87
2023/01/03 14:15:35;;;;;;;3.30;2.65;;;10.20;79.60;;;;;;5055392;28;20032;-87
2023/01/03 14:18:28;;;;;;;3.58;2.85;;;10.10;79.50;;;;;;5055029;28;20053;-87
2023/01/03 14:21:01;;;;;;;3.47;2.70;;;10.20;79.70;;;;;;5039971;28;20040;-86
2023/01/03 14:23:27;;;;;;;3.67;2.47;;;10.20;79.50;;;;;;5054276;28;20025;-85
2023/01/03 14:26:02;;;;;;;3.90;2.85;;;10.20;79.60;;;;;;5036367;28;20145;-87
2023/01/03 14:28:33;;;;;;;3.17;2.58;;;10.20;79.60;;;;;;5037784;28;20079;-87